createdAt,value
2023-05-06T00:01:17.019Z,14.54
2023-05-06T00:04:03.562Z,14.39
2023-05-06T00:06:49.896Z,14.32
2023-05-06T00:09:36.202Z,14.17
2023-05-06T00:12:22.508Z,14.50
2023-05-06T00:15:09.659Z,14.21
2023-05-06T00:17:56.899Z,14.40
2023-05-06T00:20:43.233Z,14.42
2023-05-06T00:23:29.582Z,14.38
2023-05-06T00:26:16.256Z,14.44
2023-05-06T00:29:02.349Z,14.40
2023-05-06T00:31:48.923Z,14.40
2023-05-06T00:34:35.361Z,14.28
2023-05-06T00:37:21.705Z,14.09
2023-05-06T00:40:08.873Z,14.13
2023-05-06T00:42:55.793Z,14.00
2023-05-06T00:45:42.212Z,13.71
2023-05-06T00:48:28.907Z,14.09
2023-05-06T00:51:15.067Z,14.06
2023-05-06T00:54:02.206Z,13.79
2023-05-06T00:56:48.394Z,14.10
2023-05-06T00:59:34.727Z,14.32
2023-05-06T01:02:21.223Z,14.20
2023-05-06T01:05:09.145Z,14.25
2023-05-06T01:08:07.109Z,14.33
2023-05-06T01:10:57.677Z,14.11
2023-05-06T01:14:02.681Z,14.10
2023-05-06T01:16:54.754Z,14.10
2023-05-06T01:19:59.407Z,13.59
2023-05-06T01:22:45.963Z,13.67
2023-05-06T01:25:33.811Z,13.39
2023-05-06T01:28:20.884Z,13.87
2023-05-06T01:31:10.885Z,13.11
2023-05-06T01:34:06.275Z,13.10
2023-05-06T01:36:55.381Z,13.26
2023-05-06T01:39:42.072Z,12.93
2023-05-06T01:42:32.417Z,13.46
2023-05-06T01:45:20.057Z,13.58
2023-05-06T01:48:06.924Z,13.72
2023-05-06T01:50:53.765Z,13.14
2023-05-06T01:53:40.112Z,13.09
2023-05-06T01:56:27.081Z,13.26
2023-05-06T01:59:13.548Z,13.00
2023-05-06T02:01:59.986Z,13.27
2023-05-06T02:04:46.881Z,13.55
2023-05-06T02:07:33.256Z,13.82
2023-05-06T02:10:19.691Z,13.85
2023-05-06T02:13:06.710Z,13.99
2023-05-06T02:15:54.552Z,14.11
2023-05-06T02:18:41.563Z,13.82
2023-05-06T02:21:28.400Z,13.31
2023-05-06T02:24:15.169Z,13.58
2023-05-06T02:27:02.356Z,13.37
2023-05-06T02:29:48.837Z,13.39
2023-05-06T02:32:36.230Z,13.29
2023-05-06T02:35:23.258Z,12.82
2023-05-06T02:38:09.322Z,13.60
2023-05-06T02:40:55.720Z,13.63
2023-05-06T02:43:42.102Z,13.52
2023-05-06T02:46:28.561Z,13.45
2023-05-06T02:49:15.213Z,13.46
2023-05-06T02:52:01.625Z,12.71
2023-05-06T02:54:48.019Z,12.84
2023-05-06T02:57:34.448Z,13.10
2023-05-06T03:00:21.102Z,13.39
2023-05-06T03:03:09.880Z,13.13
2023-05-06T03:05:56.391Z,13.22
2023-05-06T03:08:43.217Z,13.19
2023-05-06T03:11:31.565Z,13.16
2023-05-06T03:14:18.848Z,13.10
2023-05-06T03:17:05.425Z,13.02
2023-05-06T03:19:53.747Z,12.51
2023-05-06T03:22:42.339Z,12.80
2023-05-06T03:25:29.230Z,13.04
2023-05-06T03:28:16.274Z,12.78
2023-05-06T03:31:04.570Z,12.88
2023-05-06T03:33:52.268Z,12.65
2023-05-06T03:36:39.803Z,12.79
2023-05-06T03:39:26.121Z,12.79
2023-05-06T03:42:12.805Z,12.92
2023-05-06T03:44:59.179Z,12.64
2023-05-06T03:47:48.120Z,12.71
2023-05-06T03:50:35.105Z,12.79
2023-05-06T03:53:22.140Z,12.50
2023-05-06T03:56:09.340Z,12.74
2023-05-06T03:58:56.164Z,12.71
2023-05-06T04:01:42.659Z,12.69
2023-05-06T04:04:29.947Z,12.17
2023-05-06T04:07:16.243Z,12.44
2023-05-06T04:10:03.824Z,12.68
2023-05-06T04:12:50.705Z,12.80
2023-05-06T04:15:38.704Z,12.03
2023-05-06T04:18:25.809Z,12.89
2023-05-06T04:21:12.917Z,12.45
2023-05-06T04:23:59.257Z,11.24
2023-05-06T04:26:46.548Z,10.93
2023-05-06T04:29:33.083Z,12.31
2023-05-06T04:32:20.928Z,12.49
2023-05-06T04:35:07.696Z,13.07
2023-05-06T04:37:56.647Z,12.81
2023-05-06T04:40:42.945Z,11.23
2023-05-06T04:43:29.921Z,12.32
2023-05-06T04:46:17.368Z,11.67
2023-05-06T04:49:04.785Z,11.19
2023-05-06T04:51:50.937Z,12.34
2023-05-06T04:54:37.802Z,12.58
2023-05-06T04:57:24.268Z,11.45
2023-05-06T05:00:12.501Z,11.38
2023-05-06T05:02:59.036Z,11.59
2023-05-06T05:05:45.905Z,11.63
2023-05-06T05:08:32.946Z,12.90
2023-05-06T05:11:20.232Z,12.85
2023-05-06T05:14:06.484Z,13.39
2023-05-06T05:16:53.135Z,13.87
2023-05-06T05:19:39.247Z,13.97
2023-05-06T05:22:26.868Z,13.75
2023-05-06T05:25:14.292Z,14.07
2023-05-06T05:28:01.592Z,14.29
2023-05-06T05:30:48.038Z,14.54
2023-05-06T05:33:34.490Z,14.17
2023-05-06T05:36:21.422Z,14.11
2023-05-06T05:39:09.295Z,13.17
2023-05-06T05:41:56.188Z,13.49
2023-05-06T05:44:42.991Z,13.62
2023-05-06T05:47:29.356Z,13.84
2023-05-06T05:50:16.392Z,13.93
2023-05-06T05:53:02.878Z,14.49
2023-05-06T05:55:49.636Z,15.00
2023-05-06T05:58:37.093Z,15.45
2023-05-06T06:01:23.940Z,15.14
2023-05-06T06:04:10.216Z,14.97
2023-05-06T06:06:59.192Z,15.64
2023-05-06T06:09:47.031Z,16.20
2023-05-06T06:12:33.607Z,16.46
2023-05-06T06:15:21.816Z,16.53
2023-05-06T06:18:09.072Z,16.95
2023-05-06T06:20:56.225Z,17.02
2023-05-06T06:23:43.153Z,16.72
2023-05-06T06:26:29.945Z,17.24
2023-05-06T06:29:16.459Z,17.42
2023-05-06T06:32:03.964Z,17.51
2023-05-06T06:34:50.112Z,17.47
2023-05-06T06:37:36.441Z,18.03
2023-05-06T06:40:22.931Z,17.92
2023-05-06T06:43:09.363Z,18.02
2023-05-06T06:49:04.202Z,18.50
2023-05-06T06:51:51.655Z,18.76
2023-05-06T06:54:38.828Z,18.67
2023-05-06T06:57:25.093Z,18.54
2023-05-06T07:00:11.934Z,18.33
2023-05-06T07:02:58.485Z,18.14
2023-05-06T07:05:45.564Z,17.84
2023-05-06T07:08:31.490Z,18.28
2023-05-06T07:11:17.834Z,18.31
2023-05-06T07:14:04.318Z,18.40
2023-05-06T07:16:51.602Z,19.06
2023-05-06T07:19:38.082Z,19.20
2023-05-06T07:22:24.521Z,19.65
2023-05-06T07:25:11.288Z,19.54
2023-05-06T07:27:58.161Z,19.55
2023-05-06T07:30:45.023Z,19.89
2023-05-06T07:33:31.473Z,20.11
2023-05-06T07:36:17.778Z,20.56
2023-05-06T07:39:04.533Z,21.07
2023-05-06T07:41:51.612Z,20.64
2023-05-06T07:44:38.286Z,21.03
2023-05-06T07:47:31.622Z,21.09
2023-05-06T07:50:18.356Z,20.83
2023-05-06T07:53:04.803Z,21.09
2023-05-06T07:55:52.493Z,21.75
2023-05-06T07:58:38.619Z,21.32
2023-05-06T08:01:26.004Z,21.62
2023-05-06T08:04:13.263Z,22.23
2023-05-06T08:06:59.652Z,21.88
2023-05-06T08:09:46.455Z,22.38
2023-05-06T08:12:32.624Z,22.16
2023-05-06T08:15:19.280Z,22.57
2023-05-06T08:18:21.011Z,23.01
2023-05-06T08:21:08.857Z,23.06
2023-05-06T08:23:55.955Z,23.25
2023-05-06T08:26:42.458Z,23.51
2023-05-06T08:29:29.382Z,22.98
2023-05-06T08:32:15.909Z,23.18
2023-05-06T08:35:02.328Z,23.50
2023-05-06T08:37:48.672Z,23.67
2023-05-06T08:40:40.926Z,23.98
2023-05-06T08:43:27.813Z,23.70
2023-05-06T08:46:14.736Z,24.12
2023-05-06T08:49:01.032Z,24.10
2023-05-06T08:51:49.448Z,23.76
2023-05-06T08:54:36.590Z,23.59
2023-05-06T08:57:22.752Z,24.12
2023-05-06T09:00:11.208Z,23.50
2023-05-06T09:02:57.722Z,24.35
2023-05-06T09:05:44.225Z,24.46
2023-05-06T09:08:30.783Z,24.19
2023-05-06T09:11:29.785Z,24.40
2023-05-06T09:14:17.401Z,24.55
2023-05-06T09:17:04.106Z,24.77
2023-05-06T09:19:54.663Z,24.81
2023-05-06T09:22:41.580Z,25.25
2023-05-06T09:25:28.649Z,24.73
2023-05-06T09:28:16.873Z,24.66
2023-05-06T09:31:03.789Z,24.20
2023-05-06T09:33:51.190Z,24.98
2023-05-06T09:36:37.454Z,25.37
2023-05-06T09:39:27.583Z,25.90
2023-05-06T09:42:14.326Z,25.05
2023-05-06T09:45:02.125Z,25.82
2023-05-06T09:47:53.865Z,24.55
2023-05-06T09:50:41.333Z,24.76
2023-05-06T09:53:28.102Z,24.31
2023-05-06T09:56:15.606Z,24.99
2023-05-06T09:59:04.292Z,26.18
2023-05-06T10:01:53.248Z,26.89
2023-05-06T10:04:44.686Z,24.96
2023-05-06T10:07:32.321Z,26.51
2023-05-06T10:10:18.671Z,27.27
2023-05-06T10:13:04.953Z,26.12
2023-05-06T10:15:51.933Z,25.13
2023-05-06T10:18:39.031Z,24.05
2023-05-06T10:21:28.090Z,23.99
2023-05-06T10:24:16.430Z,23.60
2023-05-06T10:27:05.078Z,24.69
2023-05-06T10:29:53.815Z,24.92
2023-05-06T10:32:43.437Z,24.58
2023-05-06T10:35:41.477Z,23.97
2023-05-06T10:38:36.531Z,23.69
2023-05-06T10:41:26.145Z,24.21
2023-05-06T10:44:12.985Z,24.42
2023-05-06T10:47:00.801Z,24.22
2023-05-06T10:50:22.913Z,23.78
2023-05-06T10:53:08.936Z,24.41
2023-05-06T10:56:09.023Z,24.70
2023-05-06T10:58:58.138Z,23.43
2023-05-06T11:01:45.079Z,23.54
2023-05-06T11:04:31.664Z,24.60
2023-05-06T11:07:24.576Z,24.95
2023-05-06T11:10:11.448Z,25.47
2023-05-06T11:12:58.079Z,24.60
2023-05-06T11:15:46.310Z,24.93
2023-05-06T11:18:36.888Z,24.52
2023-05-06T11:21:32.378Z,24.86
2023-05-06T11:24:29.906Z,24.42
2023-05-06T11:27:20.820Z,24.39
2023-05-06T11:30:13.738Z,23.77
2023-05-06T11:33:05.497Z,23.89
2023-05-06T11:35:53.188Z,24.02
2023-05-06T11:38:51.320Z,22.80
2023-05-06T11:41:41.422Z,23.34
2023-05-06T11:44:29.725Z,23.01
2023-05-06T11:47:16.237Z,22.28
2023-05-06T11:50:07.454Z,22.22
2023-05-06T11:52:53.824Z,22.69
2023-05-06T11:55:40.132Z,22.58
2023-05-06T11:58:28.089Z,23.11
2023-05-06T12:01:14.532Z,22.51
2023-05-06T12:04:02.251Z,23.32
2023-05-06T12:06:48.446Z,23.16
2023-05-06T12:09:36.150Z,23.14
2023-05-06T12:12:23.326Z,23.13
2023-05-06T12:15:10.963Z,22.94
2023-05-06T12:17:57.329Z,22.53
2023-05-06T12:20:44.424Z,23.11
2023-05-06T12:23:31.154Z,22.93
2023-05-06T12:26:19.216Z,22.92
2023-05-06T12:29:07.900Z,22.63
2023-05-06T12:32:08.313Z,22.67
2023-05-06T12:34:54.645Z,22.78
2023-05-06T12:37:41.288Z,22.67
2023-05-06T12:40:27.532Z,23.04
2023-05-06T12:43:14.086Z,22.64
2023-05-06T12:46:07.536Z,23.10
2023-05-06T12:48:58.352Z,22.71
2023-05-06T12:51:47.131Z,22.82
2023-05-06T12:54:34.123Z,22.45
2023-05-06T12:57:20.603Z,22.45
2023-05-06T13:00:07.985Z,22.31
2023-05-06T13:02:54.206Z,22.65
2023-05-06T13:05:40.729Z,23.04
2023-05-06T13:08:27.082Z,22.16
2023-05-06T13:11:13.387Z,22.01
2023-05-06T13:13:59.886Z,22.87
2023-05-06T13:16:46.680Z,22.15
2023-05-06T13:19:33.486Z,21.68
2023-05-06T13:22:20.223Z,22.00
2023-05-06T13:25:06.833Z,22.52
2023-05-06T13:27:53.469Z,22.18
2023-05-06T13:30:39.804Z,21.70
2023-05-06T13:33:26.345Z,20.51
2023-05-06T13:36:12.632Z,19.76
2023-05-06T13:38:59.036Z,19.96
2023-05-06T13:41:50.129Z,20.05
2023-05-06T13:44:36.455Z,20.29
2023-05-06T13:47:23.196Z,19.79
2023-05-06T13:50:10.266Z,19.60
2023-05-06T13:52:56.801Z,19.36
2023-05-06T13:55:43.295Z,19.05
2023-05-06T13:58:29.614Z,19.16
2023-05-06T14:01:15.986Z,18.99
2023-05-06T14:04:02.814Z,19.20
2023-05-06T14:06:49.216Z,18.69
2023-05-06T14:09:35.808Z,18.98
2023-05-06T14:12:23.028Z,18.39
2023-05-06T14:15:10.228Z,18.63
2023-05-06T14:17:57.749Z,19.13
2023-05-06T14:20:44.311Z,18.68
2023-05-06T14:23:30.752Z,18.43
2023-05-06T14:26:17.117Z,18.31
2023-05-06T14:29:03.835Z,18.29
2023-05-06T14:31:50.370Z,18.68
2023-05-06T14:34:36.982Z,18.82
2023-05-06T14:37:23.475Z,19.30
2023-05-06T14:40:10.487Z,19.35
2023-05-06T14:42:57.123Z,19.53
2023-05-06T14:45:43.116Z,18.95
2023-05-06T14:48:29.472Z,18.93
2023-05-06T14:51:16.761Z,18.47
2023-05-06T14:54:05.818Z,18.53
2023-05-06T14:56:52.811Z,19.22
2023-05-06T14:59:39.253Z,18.95
2023-05-06T15:02:25.712Z,19.48
2023-05-06T15:05:13.511Z,19.21
2023-05-06T15:08:00.180Z,18.31
2023-05-06T15:10:49.109Z,17.88
2023-05-06T15:13:35.525Z,18.31
2023-05-06T15:16:22.424Z,19.18
2023-05-06T15:19:08.702Z,19.71
2023-05-06T15:21:55.138Z,18.84
2023-05-06T15:24:41.766Z,18.69
2023-05-06T15:27:28.198Z,19.28
2023-05-06T15:30:14.740Z,18.96
2023-05-06T15:33:01.817Z,19.60
2023-05-06T15:35:48.336Z,19.54
2023-05-06T15:38:53.149Z,19.30
2023-05-06T15:41:39.201Z,20.55
2023-05-06T15:44:27.003Z,21.00
2023-05-06T15:47:13.181Z,21.41
2023-05-06T15:49:59.740Z,21.06
2023-05-06T15:52:46.241Z,21.69
2023-05-06T15:55:42.368Z,21.83
2023-05-06T15:58:31.214Z,21.62
2023-05-06T16:01:22.095Z,20.94
2023-05-06T16:04:16.512Z,20.52
2023-05-06T16:07:02.690Z,21.75
2023-05-06T16:09:49.836Z,22.45
2023-05-06T16:12:36.114Z,22.18
2023-05-06T16:15:22.494Z,21.96
2023-05-06T16:18:09.156Z,21.94
2023-05-06T16:20:55.798Z,21.54
2023-05-06T16:23:41.934Z,22.21
2023-05-06T16:26:28.210Z,21.03
2023-05-06T16:29:18.970Z,21.85
2023-05-06T16:32:06.015Z,20.53
2023-05-06T16:34:52.161Z,20.00
2023-05-06T16:37:38.648Z,20.59
2023-05-06T16:40:25.728Z,20.78
2023-05-06T16:43:12.247Z,21.29
2023-05-06T16:45:58.446Z,21.31
2023-05-06T16:48:45.051Z,20.65
2023-05-06T16:51:32.117Z,20.54
2023-05-06T16:54:18.842Z,20.45
2023-05-06T16:57:05.775Z,21.37
2023-05-06T16:59:52.068Z,22.08
2023-05-06T17:02:39.515Z,22.04
2023-05-06T17:05:28.046Z,22.17
2023-05-06T17:08:16.097Z,22.22
2023-05-06T17:11:05.373Z,22.09
2023-05-06T17:13:53.060Z,22.05
2023-05-06T17:16:40.404Z,21.78
2023-05-06T17:19:26.416Z,21.02
2023-05-06T17:22:12.788Z,21.79
2023-05-06T17:24:59.334Z,22.05
2023-05-06T17:27:48.954Z,21.80
2023-05-06T17:30:35.148Z,21.85
2023-05-06T17:33:22.594Z,21.66
2023-05-06T17:36:09.051Z,21.90
2023-05-06T17:39:05.737Z,22.25
2023-05-06T17:41:52.891Z,22.08
2023-05-06T17:44:42.620Z,22.20
2023-05-06T17:47:30.735Z,22.14
2023-05-06T17:50:17.516Z,21.88
2023-05-06T17:53:03.943Z,21.92
2023-05-06T17:55:50.585Z,21.63
2023-05-06T17:58:36.703Z,21.45
2023-05-06T18:01:23.138Z,21.36
2023-05-06T18:04:09.551Z,21.42
2023-05-06T18:06:56.024Z,21.40
2023-05-06T18:09:42.521Z,21.36
2023-05-06T18:12:29.026Z,21.33
2023-05-06T18:15:15.867Z,21.43
2023-05-06T18:18:02.282Z,21.33
2023-05-06T18:20:48.748Z,21.40
2023-05-06T18:23:35.336Z,21.34
2023-05-06T18:26:39.805Z,21.46
2023-05-06T18:29:30.361Z,21.44
2023-05-06T18:32:17.963Z,21.42
2023-05-06T18:35:04.584Z,21.29
2023-05-06T18:37:51.244Z,21.09
2023-05-06T18:40:37.934Z,20.93
2023-05-06T18:43:24.538Z,20.81
2023-05-06T18:46:11.753Z,20.90
2023-05-06T18:48:59.140Z,21.32
2023-05-06T18:51:45.325Z,21.18
2023-05-06T18:54:31.786Z,21.05
2023-05-06T18:57:19.575Z,20.52
2023-05-06T19:00:07.260Z,20.55
2023-05-06T19:02:53.532Z,19.67
2023-05-06T19:05:39.899Z,19.03
2023-05-06T19:08:26.286Z,18.40
2023-05-06T19:11:16.385Z,19.28
2023-05-06T19:14:03.020Z,19.92
2023-05-06T19:16:49.604Z,20.06
2023-05-06T19:19:35.930Z,19.87
2023-05-06T19:22:22.568Z,19.99
2023-05-06T19:25:09.333Z,19.83
2023-05-06T19:27:56.141Z,19.68
2023-05-06T19:30:42.548Z,19.82
2023-05-06T19:33:28.846Z,19.61
2023-05-06T19:36:16.507Z,19.63
2023-05-06T19:39:02.873Z,17.08
2023-05-06T19:41:49.350Z,16.29
2023-05-06T19:44:36.120Z,16.90
2023-05-06T19:47:22.559Z,16.22
2023-05-06T19:50:09.542Z,16.51
2023-05-06T19:52:55.897Z,16.44
2023-05-06T19:55:42.365Z,16.34
2023-05-06T19:58:28.690Z,16.56
2023-05-06T20:01:17.206Z,16.58
2023-05-06T20:04:04.105Z,16.57
2023-05-06T20:06:50.165Z,17.07
2023-05-06T20:09:36.758Z,16.68
2023-05-06T20:12:23.702Z,16.11
2023-05-06T20:15:10.521Z,16.06
2023-05-06T20:17:56.820Z,15.63
2023-05-06T20:20:43.470Z,15.98
2023-05-06T20:23:30.764Z,16.47
2023-05-06T20:26:17.341Z,16.96
2023-05-06T20:29:03.906Z,16.89
2023-05-06T20:31:50.800Z,17.78
2023-05-06T20:34:36.976Z,18.30
2023-05-06T20:37:23.532Z,18.34
2023-05-06T20:40:10.558Z,18.12
2023-05-06T20:42:57.483Z,18.66
2023-05-06T20:45:43.398Z,18.12
2023-05-06T20:48:31.301Z,18.60
2023-05-06T20:51:17.811Z,18.53
2023-05-06T20:54:04.690Z,18.47
2023-05-06T20:56:50.817Z,18.88
2023-05-06T20:59:37.698Z,18.76
2023-05-06T21:02:24.270Z,18.30
2023-05-06T21:05:13.502Z,17.62
